sensor_id;sensor_type;location;lat;lon;timestamp;temperature;humidity
8010;DHT22;4050;51.160;6.938;2022-08-19T00:01:25;19.60;96.90
8010;DHT22;4050;51.160;6.938;2022-08-19T00:03:58;19.60;97.00
8010;DHT22;4050;51.160;6.938;2022-08-19T00:06:27;19.60;97.30
8010;DHT22;4050;51.160;6.938;2022-08-19T00:08:57;19.60;97.40
8010;DHT22;4050;51.160;6.938;2022-08-19T00:11:26;19.60;97.40
8010;DHT22;4050;51.160;6.938;2022-08-19T00:13:55;19.60;97.50
8010;DHT22;4050;51.160;6.938;2022-08-19T00:16:24;19.50;97.50
8010;DHT22;4050;51.160;6.938;2022-08-19T00:18:52;19.50;97.60
8010;DHT22;4050;51.160;6.938;2022-08-19T00:21:21;19.50;97.80
8010;DHT22;4050;51.160;6.938;2022-08-19T00:23:49;19.50;98.10
8010;DHT22;4050;51.160;6.938;2022-08-19T00:26:19;19.50;98.20
8010;DHT22;4050;51.160;6.938;2022-08-19T00:28:47;19.50;98.20
8010;DHT22;4050;51.160;6.938;2022-08-19T00:31:15;19.50;98.20
8010;DHT22;4050;51.160;6.938;2022-08-19T00:33:43;19.40;98.10
8010;DHT22;4050;51.160;6.938;2022-08-19T00:36:11;19.40;98.20
8010;DHT22;4050;51.160;6.938;2022-08-19T00:38:39;19.30;98.40
8010;DHT22;4050;51.160;6.938;2022-08-19T00:41:11;19.30;98.90
8010;DHT22;4050;51.160;6.938;2022-08-19T00:43:41;19.30;98.70
8010;DHT22;4050;51.160;6.938;2022-08-19T00:46:09;19.20;98.70
8010;DHT22;4050;51.160;6.938;2022-08-19T00:48:37;19.20;98.90
8010;DHT22;4050;51.160;6.938;2022-08-19T00:51:05;19.10;98.90
8010;DHT22;4050;51.160;6.938;2022-08-19T00:53:33;19.10;98.90
8010;DHT22;4050;51.160;6.938;2022-08-19T00:56:02;19.00;99.10
8010;DHT22;4050;51.160;6.938;2022-08-19T00:58:34;19.00;99.30
8010;DHT22;4050;51.160;6.938;2022-08-19T01:01:04;18.90;99.40
8010;DHT22;4050;51.160;6.938;2022-08-19T01:03:32;18.90;99.50
8010;DHT22;4050;51.160;6.938;2022-08-19T01:06:20;18.90;99.60
8010;DHT22;4050;51.160;6.938;2022-08-19T01:08:48;18.80;99.70
8010;DHT22;4050;51.160;6.938;2022-08-19T01:11:16;18.80;99.90
8010;DHT22;4050;51.160;6.938;2022-08-19T01:13:45;18.80;99.90
8010;DHT22;4050;51.160;6.938;2022-08-19T01:16:18;18.70;99.90
8010;DHT22;4050;51.160;6.938;2022-08-19T01:18:47;18.70;99.90
8010;DHT22;4050;51.160;6.938;2022-08-19T01:21:20;18.70;99.90
8010;DHT22;4050;51.160;6.938;2022-08-19T01:23:51;18.60;99.90
8010;DHT22;4050;51.160;6.938;2022-08-19T01:26:21;18.60;99.90
8010;DHT22;4050;51.160;6.938;2022-08-19T01:28:51;18.50;99.90
8010;DHT22;4050;51.160;6.938;2022-08-19T01:31:27;18.50;99.90
8010;DHT22;4050;51.160;6.938;2022-08-19T01:33:59;18.50;99.90
8010;DHT22;4050;51.160;6.938;2022-08-19T01:36:31;18.50;99.90
8010;DHT22;4050;51.160;6.938;2022-08-19T01:39:02;18.50;99.90
8010;DHT22;4050;51.160;6.938;2022-08-19T01:41:30;18.40;99.90
8010;DHT22;4050;51.160;6.938;2022-08-19T01:43:59;18.40;99.90
8010;DHT22;4050;51.160;6.938;2022-08-19T01:46:44;18.40;99.90
8010;DHT22;4050;51.160;6.938;2022-08-19T01:49:12;18.40;99.90
8010;DHT22;4050;51.160;6.938;2022-08-19T01:51:39;18.40;99.90
8010;DHT22;4050;51.160;6.938;2022-08-19T01:54:10;18.40;99.90
8010;DHT22;4050;51.160;6.938;2022-08-19T01:56:39;18.30;99.90
8010;DHT22;4050;51.160;6.938;2022-08-19T01:59:10;18.30;99.90
8010;DHT22;4050;51.160;6.938;2022-08-19T02:01:39;18.30;99.90
8010;DHT22;4050;51.160;6.938;2022-08-19T02:04:07;18.30;99.90
8010;DHT22;4050;51.160;6.938;2022-08-19T02:06:35;18.20;99.90
8010;DHT22;4050;51.160;6.938;2022-08-19T02:09:07;18.20;99.90
8010;DHT22;4050;51.160;6.938;2022-08-19T02:11:37;18.20;99.90
8010;DHT22;4050;51.160;6.938;2022-08-19T02:14:07;18.30;99.90
8010;DHT22;4050;51.160;6.938;2022-08-19T02:16:36;18.30;99.90
8010;DHT22;4050;51.160;6.938;2022-08-19T02:19:04;18.20;99.90
8010;DHT22;4050;51.160;6.938;2022-08-19T02:21:33;18.20;99.90
8010;DHT22;4050;51.160;6.938;2022-08-19T02:24:01;18.10;99.90
8010;DHT22;4050;51.160;6.938;2022-08-19T02:26:29;18.10;99.90
8010;DHT22;4050;51.160;6.938;2022-08-19T02:28:58;18.00;99.90
8010;DHT22;4050;51.160;6.938;2022-08-19T02:31:26;18.00;99.90
8010;DHT22;4050;51.160;6.938;2022-08-19T02:33:55;17.90;99.90
8010;DHT22;4050;51.160;6.938;2022-08-19T02:36:25;17.90;99.90
8010;DHT22;4050;51.160;6.938;2022-08-19T02:38:53;17.90;99.90
8010;DHT22;4050;51.160;6.938;2022-08-19T02:41:24;17.80;99.90
8010;DHT22;4050;51.160;6.938;2022-08-19T02:43:53;17.80;99.90
8010;DHT22;4050;51.160;6.938;2022-08-19T02:46:44;17.80;99.90
8010;DHT22;4050;51.160;6.938;2022-08-19T02:49:12;17.80;99.90
8010;DHT22;4050;51.160;6.938;2022-08-19T02:51:43;17.80;99.90
8010;DHT22;4050;51.160;6.938;2022-08-19T02:54:12;17.80;99.90
8010;DHT22;4050;51.160;6.938;2022-08-19T02:56:41;17.80;99.90
8010;DHT22;4050;51.160;6.938;2022-08-19T02:59:09;17.90;99.90
8010;DHT22;4050;51.160;6.938;2022-08-19T03:01:39;17.90;99.90
8010;DHT22;4050;51.160;6.938;2022-08-19T03:04:12;18.00;99.90
8010;DHT22;4050;51.160;6.938;2022-08-19T03:06:42;18.10;99.90
8010;DHT22;4050;51.160;6.938;2022-08-19T03:09:11;18.30;99.90
8010;DHT22;4050;51.160;6.938;2022-08-19T03:11:39;18.40;99.90
8010;DHT22;4050;51.160;6.938;2022-08-19T03:14:08;18.50;99.90
8010;DHT22;4050;51.160;6.938;2022-08-19T03:16:41;18.50;99.90
8010;DHT22;4050;51.160;6.938;2022-08-19T03:19:11;18.40;99.90
8010;DHT22;4050;51.160;6.938;2022-08-19T03:21:39;18.40;99.90
8010;DHT22;4050;51.160;6.938;2022-08-19T03:24:08;18.40;99.90
8010;DHT22;4050;51.160;6.938;2022-08-19T03:26:39;18.40;99.90
8010;DHT22;4050;51.160;6.938;2022-08-19T03:29:08;18.40;99.90
8010;DHT22;4050;51.160;6.938;2022-08-19T03:31:40;18.40;99.90
8010;DHT22;4050;51.160;6.938;2022-08-19T03:34:21;18.30;99.90
8010;DHT22;4050;51.160;6.938;2022-08-19T03:36:49;18.30;99.90
8010;DHT22;4050;51.160;6.938;2022-08-19T03:39:17;18.30;99.90
8010;DHT22;4050;51.160;6.938;2022-08-19T03:41:47;18.20;99.90
8010;DHT22;4050;51.160;6.938;2022-08-19T03:44:36;18.20;99.90
8010;DHT22;4050;51.160;6.938;2022-08-19T03:47:05;18.10;99.90
8010;DHT22;4050;51.160;6.938;2022-08-19T03:49:34;18.00;99.90
8010;DHT22;4050;51.160;6.938;2022-08-19T03:52:04;18.00;99.90
8010;DHT22;4050;51.160;6.938;2022-08-19T03:54:34;17.90;99.90
8010;DHT22;4050;51.160;6.938;2022-08-19T03:57:03;17.80;99.90
8010;DHT22;4050;51.160;6.938;2022-08-19T03:59:35;17.80;99.90
8010;DHT22;4050;51.160;6.938;2022-08-19T04:02:08;17.90;99.90
8010;DHT22;4050;51.160;6.938;2022-08-19T04:04:38;17.90;99.90
8010;DHT22;4050;51.160;6.938;2022-08-19T04:07:07;17.90;99.90
8010;DHT22;4050;51.160;6.938;2022-08-19T04:09:36;17.90;99.90
8010;DHT22;4050;51.160;6.938;2022-08-19T04:12:05;17.90;99.90
8010;DHT22;4050;51.160;6.938;2022-08-19T04:14:34;17.90;99.90
8010;DHT22;4050;51.160;6.938;2022-08-19T04:17:03;17.80;99.90
8010;DHT22;4050;51.160;6.938;2022-08-19T04:19:32;17.80;99.90
8010;DHT22;4050;51.160;6.938;2022-08-19T04:22:02;17.80;99.90
8010;DHT22;4050;51.160;6.938;2022-08-19T04:24:31;17.80;99.90
8010;DHT22;4050;51.160;6.938;2022-08-19T04:26:59;17.80;99.90
8010;DHT22;4050;51.160;6.938;2022-08-19T04:29:28;17.80;99.90
8010;DHT22;4050;51.160;6.938;2022-08-19T04:31:57;17.80;99.90
8010;DHT22;4050;51.160;6.938;2022-08-19T04:34:35;17.70;99.90
8010;DHT22;4050;51.160;6.938;2022-08-19T04:37:26;17.70;99.90
8010;DHT22;4050;51.160;6.938;2022-08-19T04:40:02;17.70;99.90
8010;DHT22;4050;51.160;6.938;2022-08-19T04:42:48;17.60;99.90
8010;DHT22;4050;51.160;6.938;2022-08-19T04:45:16;17.60;99.90
8010;DHT22;4050;51.160;6.938;2022-08-19T04:47:44;17.60;99.90
8010;DHT22;4050;51.160;6.938;2022-08-19T04:50:25;17.60;99.90
8010;DHT22;4050;51.160;6.938;2022-08-19T04:52:54;17.70;99.90
8010;DHT22;4050;51.160;6.938;2022-08-19T04:55:23;17.70;99.90
8010;DHT22;4050;51.160;6.938;2022-08-19T04:57:52;17.70;99.90
8010;DHT22;4050;51.160;6.938;2022-08-19T05:00:20;17.80;99.90
8010;DHT22;4050;51.160;6.938;2022-08-19T05:02:48;17.90;99.90
8010;DHT22;4050;51.160;6.938;2022-08-19T05:05:16;17.90;99.90
8010;DHT22;4050;51.160;6.938;2022-08-19T05:07:44;18.00;99.90
8010;DHT22;4050;51.160;6.938;2022-08-19T05:10:13;18.10;99.90
8010;DHT22;4050;51.160;6.938;2022-08-19T05:12:41;18.20;99.90
8010;DHT22;4050;51.160;6.938;2022-08-19T05:15:09;18.20;99.90
8010;DHT22;4050;51.160;6.938;2022-08-19T05:17:37;18.30;99.90
8010;DHT22;4050;51.160;6.938;2022-08-19T05:20:25;18.40;99.90
8010;DHT22;4050;51.160;6.938;2022-08-19T05:23:11;18.50;99.90
8010;DHT22;4050;51.160;6.938;2022-08-19T05:25:50;18.60;99.90
8010;DHT22;4050;51.160;6.938;2022-08-19T05:28:18;18.80;99.90
8010;DHT22;4050;51.160;6.938;2022-08-19T05:30:46;18.90;99.90
8010;DHT22;4050;51.160;6.938;2022-08-19T05:33:14;19.10;99.90
8010;DHT22;4050;51.160;6.938;2022-08-19T05:35:43;19.30;99.90
8010;DHT22;4050;51.160;6.938;2022-08-19T05:38:11;19.50;99.90
8010;DHT22;4050;51.160;6.938;2022-08-19T05:40:39;19.70;99.90
8010;DHT22;4050;51.160;6.938;2022-08-19T05:43:09;19.80;99.90
8010;DHT22;4050;51.160;6.938;2022-08-19T05:45:41;20.10;99.90
8010;DHT22;4050;51.160;6.938;2022-08-19T05:48:10;20.40;99.90
8010;DHT22;4050;51.160;6.938;2022-08-19T05:50:40;20.70;99.90
8010;DHT22;4050;51.160;6.938;2022-08-19T05:53:08;20.90;99.90
8010;DHT22;4050;51.160;6.938;2022-08-19T05:55:36;21.20;99.90
8010;DHT22;4050;51.160;6.938;2022-08-19T05:58:06;21.50;99.90
8010;DHT22;4050;51.160;6.938;2022-08-19T06:00:36;21.80;99.90
8010;DHT22;4050;51.160;6.938;2022-08-19T06:03:04;22.20;99.90
8010;DHT22;4050;51.160;6.938;2022-08-19T06:05:38;22.60;99.90
8010;DHT22;4050;51.160;6.938;2022-08-19T06:08:15;23.00;99.20
8010;DHT22;4050;51.160;6.938;2022-08-19T06:10:44;23.30;98.10
8010;DHT22;4050;51.160;6.938;2022-08-19T06:13:12;23.50;97.00
8010;DHT22;4050;51.160;6.938;2022-08-19T06:15:41;23.80;96.30
8010;DHT22;4050;51.160;6.938;2022-08-19T06:18:10;24.10;95.40
8010;DHT22;4050;51.160;6.938;2022-08-19T06:20:39;24.40;94.40
8010;DHT22;4050;51.160;6.938;2022-08-19T06:23:21;24.70;93.40
8010;DHT22;4050;51.160;6.938;2022-08-19T06:25:50;25.00;92.60
8010;DHT22;4050;51.160;6.938;2022-08-19T06:28:17;25.30;91.80
8010;DHT22;4050;51.160;6.938;2022-08-19T06:30:47;25.60;90.70
8010;DHT22;4050;51.160;6.938;2022-08-19T06:33:15;25.90;89.00
8010;DHT22;4050;51.160;6.938;2022-08-19T06:35:44;26.10;86.20
8010;DHT22;4050;51.160;6.938;2022-08-19T06:38:12;26.10;83.90
8010;DHT22;4050;51.160;6.938;2022-08-19T06:40:40;26.10;82.30
8010;DHT22;4050;51.160;6.938;2022-08-19T06:43:10;26.10;80.60
8010;DHT22;4050;51.160;6.938;2022-08-19T06:45:39;26.00;79.40
8010;DHT22;4050;51.160;6.938;2022-08-19T06:48:08;25.90;78.60
8010;DHT22;4050;51.160;6.938;2022-08-19T06:50:37;25.90;78.10
8010;DHT22;4050;51.160;6.938;2022-08-19T06:53:06;25.80;77.70
8010;DHT22;4050;51.160;6.938;2022-08-19T06:55:34;25.70;77.60
8010;DHT22;4050;51.160;6.938;2022-08-19T06:58:03;25.70;77.50
8010;DHT22;4050;51.160;6.938;2022-08-19T07:00:33;25.70;77.90
8010;DHT22;4050;51.160;6.938;2022-08-19T07:03:00;25.70;78.00
8010;DHT22;4050;51.160;6.938;2022-08-19T07:05:39;25.80;78.20
8010;DHT22;4050;51.160;6.938;2022-08-19T07:08:12;25.90;78.30
8010;DHT22;4050;51.160;6.938;2022-08-19T07:10:43;26.00;78.10
8010;DHT22;4050;51.160;6.938;2022-08-19T07:13:11;26.20;77.60
8010;DHT22;4050;51.160;6.938;2022-08-19T07:15:39;26.20;76.30
8010;DHT22;4050;51.160;6.938;2022-08-19T07:18:07;26.30;76.30
8010;DHT22;4050;51.160;6.938;2022-08-19T07:20:39;26.40;75.80
8010;DHT22;4050;51.160;6.938;2022-08-19T07:23:07;26.40;74.60
8010;DHT22;4050;51.160;6.938;2022-08-19T07:25:36;26.40;73.60
8010;DHT22;4050;51.160;6.938;2022-08-19T07:28:06;26.30;73.40
8010;DHT22;4050;51.160;6.938;2022-08-19T07:30:50;26.20;73.30
8010;DHT22;4050;51.160;6.938;2022-08-19T07:33:18;26.20;73.50
8010;DHT22;4050;51.160;6.938;2022-08-19T07:35:47;26.20;73.30
8010;DHT22;4050;51.160;6.938;2022-08-19T07:38:16;26.10;73.40
8010;DHT22;4050;51.160;6.938;2022-08-19T07:40:44;26.10;73.40
8010;DHT22;4050;51.160;6.938;2022-08-19T07:43:12;26.10;73.50
8010;DHT22;4050;51.160;6.938;2022-08-19T07:45:44;26.10;73.90
8010;DHT22;4050;51.160;6.938;2022-08-19T07:48:13;26.10;73.80
8010;DHT22;4050;51.160;6.938;2022-08-19T07:50:41;26.20;74.00
8010;DHT22;4050;51.160;6.938;2022-08-19T07:53:10;26.20;73.70
8010;DHT22;4050;51.160;6.938;2022-08-19T07:55:39;26.30;73.50
8010;DHT22;4050;51.160;6.938;2022-08-19T07:58:11;26.30;73.30
8010;DHT22;4050;51.160;6.938;2022-08-19T08:00:40;26.30;72.70
8010;DHT22;4050;51.160;6.938;2022-08-19T08:03:08;26.30;72.80
8010;DHT22;4050;51.160;6.938;2022-08-19T08:05:36;26.40;72.70
8010;DHT22;4050;51.160;6.938;2022-08-19T08:08:22;26.60;73.10
8010;DHT22;4050;51.160;6.938;2022-08-19T08:11:13;26.90;73.70
8010;DHT22;4050;51.160;6.938;2022-08-19T08:13:43;27.40;72.90
8010;DHT22;4050;51.160;6.938;2022-08-19T08:16:11;27.90;72.30
8010;DHT22;4050;51.160;6.938;2022-08-19T08:18:40;28.50;70.10
8010;DHT22;4050;51.160;6.938;2022-08-19T08:21:08;29.20;67.40
8010;DHT22;4050;51.160;6.938;2022-08-19T08:23:37;29.80;65.30
8010;DHT22;4050;51.160;6.938;2022-08-19T08:26:06;30.70;62.20
8010;DHT22;4050;51.160;6.938;2022-08-19T08:28:34;31.80;58.40
8010;DHT22;4050;51.160;6.938;2022-08-19T08:31:04;32.70;54.90
8010;DHT22;4050;51.160;6.938;2022-08-19T08:33:35;33.40;51.70
8010;DHT22;4050;51.160;6.938;2022-08-19T08:36:04;33.90;48.90
8010;DHT22;4050;51.160;6.938;2022-08-19T08:38:32;34.30;47.80
8010;DHT22;4050;51.160;6.938;2022-08-19T08:41:14;34.50;46.00
8010;DHT22;4050;51.160;6.938;2022-08-19T08:43:48;34.60;45.30
8010;DHT22;4050;51.160;6.938;2022-08-19T08:46:22;34.80;45.10
8010;DHT22;4050;51.160;6.938;2022-08-19T08:49:03;35.10;44.30
8010;DHT22;4050;51.160;6.938;2022-08-19T08:51:38;35.60;43.60
8010;DHT22;4050;51.160;6.938;2022-08-19T08:54:14;36.40;42.60
8010;DHT22;4050;51.160;6.938;2022-08-19T08:56:46;37.40;40.80
8010;DHT22;4050;51.160;6.938;2022-08-19T08:59:21;38.30;39.20
8010;DHT22;4050;51.160;6.938;2022-08-19T09:01:50;39.00;37.20
8010;DHT22;4050;51.160;6.938;2022-08-19T09:04:18;39.30;35.90
8010;DHT22;4050;51.160;6.938;2022-08-19T09:06:53;39.20;35.20
8010;DHT22;4050;51.160;6.938;2022-08-19T09:09:26;39.20;35.00
8010;DHT22;4050;51.160;6.938;2022-08-19T09:12:05;39.00;34.70
8010;DHT22;4050;51.160;6.938;2022-08-19T09:14:43;38.60;34.70
8010;DHT22;4050;51.160;6.938;2022-08-19T09:17:17;37.90;34.70
8010;DHT22;4050;51.160;6.938;2022-08-19T09:19:50;37.40;35.20
8010;DHT22;4050;51.160;6.938;2022-08-19T09:22:19;36.90;35.90
8010;DHT22;4050;51.160;6.938;2022-08-19T09:24:53;36.60;36.70
8010;DHT22;4050;51.160;6.938;2022-08-19T09:27:23;36.40;37.00
8010;DHT22;4050;51.160;6.938;2022-08-19T09:30:11;36.10;36.50
8010;DHT22;4050;51.160;6.938;2022-08-19T09:32:41;35.70;37.10
8010;DHT22;4050;51.160;6.938;2022-08-19T09:35:10;35.50;37.70
8010;DHT22;4050;51.160;6.938;2022-08-19T09:37:39;35.50;38.10
8010;DHT22;4050;51.160;6.938;2022-08-19T09:40:09;35.70;38.10
8010;DHT22;4050;51.160;6.938;2022-08-19T09:42:39;35.90;38.00
8010;DHT22;4050;51.160;6.938;2022-08-19T09:45:18;36.20;38.00
8010;DHT22;4050;51.160;6.938;2022-08-19T09:47:46;36.60;37.40
8010;DHT22;4050;51.160;6.938;2022-08-19T09:50:15;36.80;36.50
8010;DHT22;4050;51.160;6.938;2022-08-19T09:52:43;36.80;35.70
8010;DHT22;4050;51.160;6.938;2022-08-19T09:55:24;36.90;35.50
8010;DHT22;4050;51.160;6.938;2022-08-19T09:58:00;36.90;35.10
8010;DHT22;4050;51.160;6.938;2022-08-19T10:00:28;36.70;35.30
8010;DHT22;4050;51.160;6.938;2022-08-19T10:02:57;36.70;35.60
8010;DHT22;4050;51.160;6.938;2022-08-19T10:05:26;36.80;35.70
8010;DHT22;4050;51.160;6.938;2022-08-19T10:08:15;37.20;35.80
8010;DHT22;4050;51.160;6.938;2022-08-19T10:10:43;37.80;34.70
8010;DHT22;4050;51.160;6.938;2022-08-19T10:13:16;38.40;34.00
8010;DHT22;4050;51.160;6.938;2022-08-19T10:15:44;39.30;33.00
8010;DHT22;4050;51.160;6.938;2022-08-19T10:18:14;40.40;31.60
8010;DHT22;4050;51.160;6.938;2022-08-19T10:20:45;41.40;30.10
8010;DHT22;4050;51.160;6.938;2022-08-19T10:23:18;42.20;29.30
8010;DHT22;4050;51.160;6.938;2022-08-19T10:25:47;43.00;28.60
8010;DHT22;4050;51.160;6.938;2022-08-19T10:28:16;43.70;27.30
8010;DHT22;4050;51.160;6.938;2022-08-19T10:30:45;43.50;26.60
8010;DHT22;4050;51.160;6.938;2022-08-19T10:33:13;43.40;26.90
8010;DHT22;4050;51.160;6.938;2022-08-19T10:36:02;42.90;27.10
8010;DHT22;4050;51.160;6.938;2022-08-19T10:38:31;42.60;27.50
8010;DHT22;4050;51.160;6.938;2022-08-19T10:41:07;42.30;27.80
8010;DHT22;4050;51.160;6.938;2022-08-19T10:43:36;41.80;27.70
8010;DHT22;4050;51.160;6.938;2022-08-19T10:46:07;41.40;28.00
8010;DHT22;4050;51.160;6.938;2022-08-19T10:48:43;40.70;28.50
8010;DHT22;4050;51.160;6.938;2022-08-19T10:51:12;40.50;29.40
8010;DHT22;4050;51.160;6.938;2022-08-19T10:53:58;39.80;28.80
8010;DHT22;4050;51.160;6.938;2022-08-19T10:56:26;38.80;29.50
8010;DHT22;4050;51.160;6.938;2022-08-19T10:59:17;38.00;30.30
8010;DHT22;4050;51.160;6.938;2022-08-19T11:01:45;37.00;31.30
8010;DHT22;4050;51.160;6.938;2022-08-19T11:04:17;36.20;32.30
8010;DHT22;4050;51.160;6.938;2022-08-19T11:06:48;35.20;33.70
8010;DHT22;4050;51.160;6.938;2022-08-19T11:09:17;34.40;34.80
8010;DHT22;4050;51.160;6.938;2022-08-19T11:11:46;33.90;35.80
8010;DHT22;4050;51.160;6.938;2022-08-19T11:14:17;33.40;36.60
8010;DHT22;4050;51.160;6.938;2022-08-19T11:16:48;33.20;38.10
8010;DHT22;4050;51.160;6.938;2022-08-19T11:19:16;33.20;38.40
8010;DHT22;4050;51.160;6.938;2022-08-19T11:21:47;33.10;38.50
8010;DHT22;4050;51.160;6.938;2022-08-19T11:24:19;33.10;38.60
8010;DHT22;4050;51.160;6.938;2022-08-19T11:26:48;32.90;38.60
8010;DHT22;4050;51.160;6.938;2022-08-19T11:29:20;32.80;38.70
8010;DHT22;4050;51.160;6.938;2022-08-19T11:31:52;32.80;39.00
8010;DHT22;4050;51.160;6.938;2022-08-19T11:34:25;32.90;39.20
8010;DHT22;4050;51.160;6.938;2022-08-19T11:36:55;33.00;39.20
8010;DHT22;4050;51.160;6.938;2022-08-19T11:39:27;32.90;38.90
8010;DHT22;4050;51.160;6.938;2022-08-19T11:41:56;32.40;38.80
8010;DHT22;4050;51.160;6.938;2022-08-19T11:44:26;32.10;39.50
8010;DHT22;4050;51.160;6.938;2022-08-19T11:46:56;32.00;39.90
8010;DHT22;4050;51.160;6.938;2022-08-19T11:49:34;31.90;40.00
8010;DHT22;4050;51.160;6.938;2022-08-19T11:52:03;31.90;40.10
8010;DHT22;4050;51.160;6.938;2022-08-19T11:54:30;31.80;40.20
8010;DHT22;4050;51.160;6.938;2022-08-19T11:56:59;31.80;40.00
8010;DHT22;4050;51.160;6.938;2022-08-19T11:59:28;31.80;40.30
8010;DHT22;4050;51.160;6.938;2022-08-19T12:01:56;31.90;40.60
8010;DHT22;4050;51.160;6.938;2022-08-19T12:04:25;31.80;40.00
8010;DHT22;4050;51.160;6.938;2022-08-19T12:06:53;31.80;40.00
8010;DHT22;4050;51.160;6.938;2022-08-19T12:09:21;31.80;40.00
8010;DHT22;4050;51.160;6.938;2022-08-19T12:11:49;31.80;40.00
8010;DHT22;4050;51.160;6.938;2022-08-19T12:14:18;31.90;39.90
8010;DHT22;4050;51.160;6.938;2022-08-19T12:16:47;32.00;39.80
8010;DHT22;4050;51.160;6.938;2022-08-19T12:19:18;32.00;39.40
8010;DHT22;4050;51.160;6.938;2022-08-19T12:21:48;31.90;39.60
8010;DHT22;4050;51.160;6.938;2022-08-19T12:24:16;32.00;39.90
8010;DHT22;4050;51.160;6.938;2022-08-19T12:26:49;32.20;39.70
8010;DHT22;4050;51.160;6.938;2022-08-19T12:29:19;32.40;39.70
8010;DHT22;4050;51.160;6.938;2022-08-19T12:31:51;32.50;39.10
8010;DHT22;4050;51.160;6.938;2022-08-19T12:34:19;32.70;38.50
8010;DHT22;4050;51.160;6.938;2022-08-19T12:36:47;32.70;38.20
8010;DHT22;4050;51.160;6.938;2022-08-19T12:39:16;32.80;38.10
8010;DHT22;4050;51.160;6.938;2022-08-19T12:41:44;32.90;37.70
8010;DHT22;4050;51.160;6.938;2022-08-19T12:44:21;33.10;37.70
8010;DHT22;4050;51.160;6.938;2022-08-19T12:46:59;33.20;37.40
8010;DHT22;4050;51.160;6.938;2022-08-19T12:49:30;33.30;37.40
8010;DHT22;4050;51.160;6.938;2022-08-19T12:52:20;33.50;37.20
8010;DHT22;4050;51.160;6.938;2022-08-19T12:54:48;33.50;36.90
8010;DHT22;4050;51.160;6.938;2022-08-19T12:57:20;33.30;36.50
8010;DHT22;4050;51.160;6.938;2022-08-19T12:59:57;33.30;36.50
8010;DHT22;4050;51.160;6.938;2022-08-19T13:02:26;33.30;36.50
8010;DHT22;4050;51.160;6.938;2022-08-19T13:04:54;33.20;36.50
8010;DHT22;4050;51.160;6.938;2022-08-19T13:07:23;33.10;36.70
8010;DHT22;4050;51.160;6.938;2022-08-19T13:09:51;33.00;37.00
8010;DHT22;4050;51.160;6.938;2022-08-19T13:12:19;32.80;37.30
8010;DHT22;4050;51.160;6.938;2022-08-19T13:14:51;32.80;37.50
8010;DHT22;4050;51.160;6.938;2022-08-19T13:17:19;32.60;37.40
8010;DHT22;4050;51.160;6.938;2022-08-19T13:19:48;32.50;37.50
8010;DHT22;4050;51.160;6.938;2022-08-19T13:22:17;32.40;37.50
8010;DHT22;4050;51.160;6.938;2022-08-19T13:24:45;32.20;37.40
8010;DHT22;4050;51.160;6.938;2022-08-19T13:27:13;31.90;37.50
8010;DHT22;4050;51.160;6.938;2022-08-19T13:29:42;31.70;37.90
8010;DHT22;4050;51.160;6.938;2022-08-19T13:32:28;31.50;38.00
8010;DHT22;4050;51.160;6.938;2022-08-19T13:35:16;31.40;38.00
8010;DHT22;4050;51.160;6.938;2022-08-19T13:37:44;31.20;37.80
8010;DHT22;4050;51.160;6.938;2022-08-19T13:40:15;31.10;38.10
8010;DHT22;4050;51.160;6.938;2022-08-19T13:42:46;31.10;38.00
8010;DHT22;4050;51.160;6.938;2022-08-19T13:45:16;31.10;38.30
8010;DHT22;4050;51.160;6.938;2022-08-19T13:47:45;31.10;38.50
8010;DHT22;4050;51.160;6.938;2022-08-19T13:50:16;31.00;38.40
8010;DHT22;4050;51.160;6.938;2022-08-19T13:52:45;31.10;38.40
8010;DHT22;4050;51.160;6.938;2022-08-19T13:55:14;31.20;38.50
8010;DHT22;4050;51.160;6.938;2022-08-19T13:57:51;31.20;38.30
8010;DHT22;4050;51.160;6.938;2022-08-19T14:00:21;31.20;38.20
8010;DHT22;4050;51.160;6.938;2022-08-19T14:02:51;31.30;38.10
8010;DHT22;4050;51.160;6.938;2022-08-19T14:05:20;31.30;38.10
8010;DHT22;4050;51.160;6.938;2022-08-19T14:07:49;31.30;38.10
8010;DHT22;4050;51.160;6.938;2022-08-19T14:10:17;31.30;38.00
8010;DHT22;4050;51.160;6.938;2022-08-19T14:12:45;31.30;37.70
8010;DHT22;4050;51.160;6.938;2022-08-19T14:15:14;31.30;37.80
8010;DHT22;4050;51.160;6.938;2022-08-19T14:17:44;31.30;37.90
8010;DHT22;4050;51.160;6.938;2022-08-19T14:20:15;31.40;37.90
8010;DHT22;4050;51.160;6.938;2022-08-19T14:22:46;31.30;37.40
8010;DHT22;4050;51.160;6.938;2022-08-19T14:25:17;31.30;37.20
8010;DHT22;4050;51.160;6.938;2022-08-19T14:27:46;31.20;37.00
8010;DHT22;4050;51.160;6.938;2022-08-19T14:30:17;31.10;37.00
8010;DHT22;4050;51.160;6.938;2022-08-19T14:32:45;31.00;37.00
8010;DHT22;4050;51.160;6.938;2022-08-19T14:35:14;30.90;37.20
8010;DHT22;4050;51.160;6.938;2022-08-19T14:37:45;30.90;37.60
8010;DHT22;4050;51.160;6.938;2022-08-19T14:40:14;30.80;38.00
8010;DHT22;4050;51.160;6.938;2022-08-19T14:42:43;30.70;38.10
8010;DHT22;4050;51.160;6.938;2022-08-19T14:45:11;30.70;38.50
8010;DHT22;4050;51.160;6.938;2022-08-19T14:47:39;30.70;38.70
8010;DHT22;4050;51.160;6.938;2022-08-19T14:50:11;30.80;38.80
8010;DHT22;4050;51.160;6.938;2022-08-19T14:52:46;30.80;38.70
8010;DHT22;4050;51.160;6.938;2022-08-19T14:55:16;30.90;38.50
8010;DHT22;4050;51.160;6.938;2022-08-19T14:57:44;30.80;38.40
8010;DHT22;4050;51.160;6.938;2022-08-19T15:00:14;30.80;38.30
8010;DHT22;4050;51.160;6.938;2022-08-19T15:02:42;30.70;38.30
8010;DHT22;4050;51.160;6.938;2022-08-19T15:05:11;30.80;38.30
8010;DHT22;4050;51.160;6.938;2022-08-19T15:07:40;30.70;38.00
8010;DHT22;4050;51.160;6.938;2022-08-19T15:10:11;30.70;37.90
8010;DHT22;4050;51.160;6.938;2022-08-19T15:12:39;30.80;37.90
8010;DHT22;4050;51.160;6.938;2022-08-19T15:15:11;30.80;37.20
8010;DHT22;4050;51.160;6.938;2022-08-19T15:17:40;30.80;37.10
8010;DHT22;4050;51.160;6.938;2022-08-19T15:20:14;30.80;37.00
8010;DHT22;4050;51.160;6.938;2022-08-19T15:22:42;30.80;36.90
8010;DHT22;4050;51.160;6.938;2022-08-19T15:25:14;30.80;36.70
8010;DHT22;4050;51.160;6.938;2022-08-19T15:27:42;30.80;36.50
8010;DHT22;4050;51.160;6.938;2022-08-19T15:30:11;30.80;36.30
8010;DHT22;4050;51.160;6.938;2022-08-19T15:32:39;30.90;36.80
8010;DHT22;4050;51.160;6.938;2022-08-19T15:35:12;30.80;37.30
8010;DHT22;4050;51.160;6.938;2022-08-19T15:37:40;30.80;37.60
8010;DHT22;4050;51.160;6.938;2022-08-19T15:40:09;30.60;38.00
8010;DHT22;4050;51.160;6.938;2022-08-19T15:42:38;30.50;38.40
8010;DHT22;4050;51.160;6.938;2022-08-19T15:45:10;30.40;38.80
8010;DHT22;4050;51.160;6.938;2022-08-19T15:47:39;30.30;39.10
8010;DHT22;4050;51.160;6.938;2022-08-19T15:50:09;30.20;39.00
8010;DHT22;4050;51.160;6.938;2022-08-19T15:52:44;30.20;39.30
8010;DHT22;4050;51.160;6.938;2022-08-19T15:55:17;30.20;39.40
8010;DHT22;4050;51.160;6.938;2022-08-19T15:58:02;30.20;39.30
8010;DHT22;4050;51.160;6.938;2022-08-19T16:00:55;30.30;39.50
8010;DHT22;4050;51.160;6.938;2022-08-19T16:03:41;30.30;39.60
8010;DHT22;4050;51.160;6.938;2022-08-19T16:06:27;30.30;39.70
8010;DHT22;4050;51.160;6.938;2022-08-19T16:08:57;30.40;40.00
8010;DHT22;4050;51.160;6.938;2022-08-19T16:11:28;30.30;40.40
8010;DHT22;4050;51.160;6.938;2022-08-19T16:13:58;30.20;40.50
8010;DHT22;4050;51.160;6.938;2022-08-19T16:16:29;30.00;40.70
8010;DHT22;4050;51.160;6.938;2022-08-19T16:19:02;29.80;40.90
8010;DHT22;4050;51.160;6.938;2022-08-19T16:21:36;29.60;41.20
8010;DHT22;4050;51.160;6.938;2022-08-19T16:24:09;29.40;41.60
8010;DHT22;4050;51.160;6.938;2022-08-19T16:26:39;29.10;42.50